Whale Watcher II — WDB8211 — position and weather

sailwx.info

Track history (hours):
 
Tides and Currents Weather Stations Pressure Air Temp Water Temp Dewpoint Dewpoint Depression Visibility Wind Speed Wind Dir Waves Ship Positions

Whale Watcher II

Owner: Ronald L. Robbins LLC, Cape May, NJ. More information available from US FCC via Universal Licensing System and Coast Guard Vessel Documentation Center.

Last reported at 2015-Jul-08 01:32 UTC. Time now 2015-Jul-08 02:15 UTC.
Position N 29°56' W 090°04'.

Length 22 m.

Type: Towing. MMSI: 367011790.

Date/timePositionNaut miles runAvg speedWind from/ knotsBaromVisibWave heightAir tempDewpointWater temp
2015-Jul-08 01:32N 29°56' W 090°04'0 0.1
2015-Jul-08 00:34N 29°56' W 090°04'0 0.0
2015-Jul-07 23:32N 29°56' W 090°04'0 0.0
2015-Jul-07 22:33N 29°56' W 090°04'0 0.0
2015-Jul-07 21:27N 29°56' W 090°04'0 0.1
2015-Jul-07 20:30N 29°55' W 090°04'0 0.1
2015-Jul-07 19:26N 29°56' W 090°04'6 0.2
2015-Jul-06 18:21N 29°55' W 089°56'6 6.4
2015-Jul-06 17:21N 29°55' W 090°04'0 0.6
2015-Jul-06 16:33N 29°56' W 090°03'0 0.0
2015-Jul-06 15:33N 29°56' W 090°03'0 0.0
2015-Jul-06 14:31N 29°56' W 090°03'0 0.2
2015-Jul-06 13:28N 29°56' W 090°04'0 0.2
2015-Jul-06 12:32N 29°56' W 090°03'0 0.2
2015-Jul-06 11:27N 29°56' W 090°04'1 1.2
2015-Jul-06 10:31N 29°55' W 090°05'1 0.1
2015-Jul-05 12:33N 29°56' W 090°03'0 0.0
2015-Jul-05 10:31N 29°56' W 090°03'0 0.0
2015-Jul-05 09:30N 29°56' W 090°03'0 0.0
2015-Jul-05 08:28N 29°56' W 090°03'0 0.0
2015-Jul-05 07:19N 29°56' W 090°03'0 0.0
2015-Jul-05 06:22N 29°56' W 090°03'0 0.0
2015-Jul-05 05:31N 29°56' W 090°03'0 0.4
2015-Jul-05 04:33N 29°55' W 090°04'0 0.0
2015-Jul-05 03:28N 29°55' W 090°04'0 0.0
2015-Jul-05 02:21N 29°55' W 090°04'0 0.0
2015-Jul-05 01:30N 29°55' W 090°04'0 0.0
2015-Jul-05 00:04N 29°55' W 090°04'0 0.0
2015-Jul-04 23:22N 29°55' W 090°04'0 0.1
2015-Jul-04 21:18N 29°55' W 090°04'0 0.3
2015-Jul-04 20:29N 29°55' W 090°04'5 0.5
2015-Jul-04 10:32N 29°57' W 090°10'4 4.0
2015-Jul-04 09:27N 29°55' W 090°05'2 1.7
2015-Jul-04 08:25N 29°55' W 090°04'0 0.0
2015-Jul-04 07:22N 29°55' W 090°04'2 0.3
2015-Jul-03 23:25N 29°57' W 090°01'0 0.0
2015-Jul-03 22:32N 29°57' W 090°01'0 0.1
2015-Jul-03 21:32N 29°57' W 090°01'1 1.4
2015-Jul-03 20:33N 29°56' W 090°00'0 0.0
2015-Jul-03 19:33N 29°56' W 090°00'0 0.0
2015-Jul-03 18:33N 29°56' W 090°00'1 0.9
2015-Jul-03 17:33N 29°57' W 090°01'3 2.6
2015-Jul-03 16:33N 29°56' W 090°04'0 0.0
2015-Jul-03 15:32N 29°56' W 090°04'1 1.0
2015-Jul-03 14:31N 29°57' W 090°04'0 0.0
2015-Jul-03 13:33N 29°57' W 090°04'1 1.0
2015-Jul-03 12:16N 29°56' W 090°04'1 0.6
2015-Jul-03 11:22N 29°55' W 090°04'0 0.0
2015-Jul-01 18:21N 29°56' W 090°04'3 2.1
2015-Jul-01 17:05N 29°55' W 090°06'0 0.0
2015-Jul-01 16:32N 29°55' W 090°06'0 0.0
2015-Jul-01 15:08N 29°55' W 090°06'0 0.0
2015-Jul-01 14:16N 29°55' W 090°06'0 0.0
2015-Jul-01 13:33N 29°55' W 090°06'0 0.0
2015-Jul-01 12:04N 29°55' W 090°06'0 0.0
2015-Jul-01 11:32N 29°55' W 090°06'2 1.5
2015-Jul-01 10:21N 29°55' W 090°04'1 1.2
2015-Jul-01 09:28N 29°56' W 090°04'0 0.3
2015-Jul-01 08:33N 29°55' W 090°04'0 0.4
2015-Jul-01 07:32N 29°56' W 090°03'1 0.8
2015-Jul-01 06:18N 29°55' W 090°04'0 0.1
2015-Jul-01 05:33N 29°55' W 090°04'0 0.0
2015-Jul-01 04:33N 29°55' W 090°04'0 0.0
2015-Jul-01 03:31N 29°55' W 090°04'0 0.0
2015-Jul-01 02:33N 29°55' W 090°04'0 0.0
2015-Jul-01 01:33N 29°55' W 090°04'0 0.0
2015-Jul-01 00:31N 29°55' W 090°04'0 0.0
2015-Jun-30 23:33N 29°55' W 090°04'0 0.0
2015-Jun-30 22:33N 29°55' W 090°04'0 0.0
2015-Jun-30 21:20N 29°55' W 090°04'0 0.0
2015-Jun-30 20:33N 29°55' W 090°04'1 0.9
2015-Jun-30 19:33N 29°56' W 090°03'0 0.0
2015-Jun-30 14:30N 29°56' W 090°04'0 0.0
2015-Jun-30 13:30N 29°56' W 090°04'0 0.0
2015-Jun-30 12:33N 29°56' W 090°04'0 0.0
2015-Jun-30 11:33N 29°56' W 090°04'0 0.0
2015-Jun-30 10:32N 29°56' W 090°04'0 0.2
2015-Jun-30 09:33N 29°56' W 090°03'3 2.8
2015-Jun-30 08:33N 29°56' W 090°00'0 0.3
2015-Jun-30 07:32N 29°56' W 089°60'0 0.0
2015-Jun-30 06:28N 29°56' W 089°60'0 0.0
2015-Jun-30 05:29N 29°56' W 089°60'5 0.1
2015-Jun-28 17:20N 29°54' W 089°54'910.9
2015-Jun-28 16:33N 29°57' W 090°04'2 1.9
2015-Jun-28 15:31N 29°55' W 090°04'0 0.0
2015-Jun-28 14:33N 29°55' W 090°04'0 0.1
2015-Jun-28 13:32N 29°55' W 090°04'0 0.0
2015-Jun-28 12:26N 29°55' W 090°04'0 0.0
2015-Jun-28 11:23N 29°55' W 090°04'0 0.0
2015-Jun-28 10:33N 29°55' W 090°04'  
Track history (hours):
 
Tides and Currents Weather Stations Pressure Air Temp Water Temp Dewpoint Dewpoint Depression Visibility Wind Speed Wind Dir Waves Ship Positions

Whale Watcher II

Owner: Ronald L. Robbins LLC, Cape May, NJ. More information available from US FCC via Universal Licensing System and Coast Guard Vessel Documentation Center.

Last reported at 2015-Jul-08 01:32 UTC. Time now 2015-Jul-08 02:15 UTC.
Position N 29°56' W 090°04'.

Length 22 m.

Type: Towing. MMSI: 367011790.

Date/timePositionNaut miles runAvg speedWind from/ knotsBaromVisibWave heightAir tempDewpointWater temp
2015-Jul-08 01:32N 29°56' W 090°04'0 0.1
2015-Jul-08 00:34N 29°56' W 090°04'0 0.0
2015-Jul-07 23:32N 29°56' W 090°04'0 0.0
2015-Jul-07 22:33N 29°56' W 090°04'0 0.0
2015-Jul-07 21:27N 29°56' W 090°04'0 0.1
2015-Jul-07 20:30N 29°55' W 090°04'0 0.1
2015-Jul-07 19:26N 29°56' W 090°04'6 0.2
2015-Jul-06 18:21N 29°55' W 089°56'6 6.4
2015-Jul-06 17:21N 29°55' W 090°04'0 0.6
2015-Jul-06 16:33N 29°56' W 090°03'0 0.0
2015-Jul-06 15:33N 29°56' W 090°03'0 0.0
2015-Jul-06 14:31N 29°56' W 090°03'0 0.2
2015-Jul-06 13:28N 29°56' W 090°04'0 0.2
2015-Jul-06 12:32N 29°56' W 090°03'0 0.2
2015-Jul-06 11:27N 29°56' W 090°04'1 1.2
2015-Jul-06 10:31N 29°55' W 090°05'1 0.1
2015-Jul-05 12:33N 29°56' W 090°03'0 0.0
2015-Jul-05 10:31N 29°56' W 090°03'0 0.0
2015-Jul-05 09:30N 29°56' W 090°03'0 0.0
2015-Jul-05 08:28N 29°56' W 090°03'0 0.0
2015-Jul-05 07:19N 29°56' W 090°03'0 0.0
2015-Jul-05 06:22N 29°56' W 090°03'0 0.0
2015-Jul-05 05:31N 29°56' W 090°03'0 0.4
2015-Jul-05 04:33N 29°55' W 090°04'0 0.0
2015-Jul-05 03:28N 29°55' W 090°04'0 0.0
2015-Jul-05 02:21N 29°55' W 090°04'0 0.0
2015-Jul-05 01:30N 29°55' W 090°04'0 0.0
2015-Jul-05 00:04N 29°55' W 090°04'0 0.0
2015-Jul-04 23:22N 29°55' W 090°04'0 0.1
2015-Jul-04 21:18N 29°55' W 090°04'0 0.3
2015-Jul-04 20:29N 29°55' W 090°04'5 0.5
2015-Jul-04 10:32N 29°57' W 090°10'4 4.0
2015-Jul-04 09:27N 29°55' W 090°05'2 1.7
2015-Jul-04 08:25N 29°55' W 090°04'0 0.0
2015-Jul-04 07:22N 29°55' W 090°04'2 0.3
2015-Jul-03 23:25N 29°57' W 090°01'0 0.0
2015-Jul-03 22:32N 29°57' W 090°01'0 0.1
2015-Jul-03 21:32N 29°57' W 090°01'1 1.4
2015-Jul-03 20:33N 29°56' W 090°00'0 0.0
2015-Jul-03 19:33N 29°56' W 090°00'0 0.0
2015-Jul-03 18:33N 29°56' W 090°00'1 0.9
2015-Jul-03 17:33N 29°57' W 090°01'3 2.6
2015-Jul-03 16:33N 29°56' W 090°04'0 0.0
2015-Jul-03 15:32N 29°56' W 090°04'1 1.0
2015-Jul-03 14:31N 29°57' W 090°04'0 0.0
2015-Jul-03 13:33N 29°57' W 090°04'1 1.0
2015-Jul-03 12:16N 29°56' W 090°04'1 0.6
2015-Jul-03 11:22N 29°55' W 090°04'0 0.0
2015-Jul-01 18:21N 29°56' W 090°04'3 2.1
2015-Jul-01 17:05N 29°55' W 090°06'0 0.0
2015-Jul-01 16:32N 29°55' W 090°06'0 0.0
2015-Jul-01 15:08N 29°55' W 090°06'0 0.0
2015-Jul-01 14:16N 29°55' W 090°06'0 0.0
2015-Jul-01 13:33N 29°55' W 090°06'0 0.0
2015-Jul-01 12:04N 29°55' W 090°06'0 0.0
2015-Jul-01 11:32N 29°55' W 090°06'2 1.5
2015-Jul-01 10:21N 29°55' W 090°04'1 1.2
2015-Jul-01 09:28N 29°56' W 090°04'0 0.3
2015-Jul-01 08:33N 29°55' W 090°04'0 0.4
2015-Jul-01 07:32N 29°56' W 090°03'1 0.8
2015-Jul-01 06:18N 29°55' W 090°04'0 0.1
2015-Jul-01 05:33N 29°55' W 090°04'0 0.0
2015-Jul-01 04:33N 29°55' W 090°04'0 0.0
2015-Jul-01 03:31N 29°55' W 090°04'0 0.0
2015-Jul-01 02:33N 29°55' W 090°04'0 0.0
2015-Jul-01 01:33N 29°55' W 090°04'0 0.0
2015-Jul-01 00:31N 29°55' W 090°04'0 0.0
2015-Jun-30 23:33N 29°55' W 090°04'0 0.0
2015-Jun-30 22:33N 29°55' W 090°04'0 0.0
2015-Jun-30 21:20N 29°55' W 090°04'0 0.0
2015-Jun-30 20:33N 29°55' W 090°04'1 0.9
2015-Jun-30 19:33N 29°56' W 090°03'0 0.0
2015-Jun-30 14:30N 29°56' W 090°04'0 0.0
2015-Jun-30 13:30N 29°56' W 090°04'0 0.0
2015-Jun-30 12:33N 29°56' W 090°04'0 0.0
2015-Jun-30 11:33N 29°56' W 090°04'0 0.0
2015-Jun-30 10:32N 29°56' W 090°04'0 0.2
2015-Jun-30 09:33N 29°56' W 090°03'3 2.8
2015-Jun-30 08:33N 29°56' W 090°00'0 0.3
2015-Jun-30 07:32N 29°56' W 089°60'0 0.0
2015-Jun-30 06:28N 29°56' W 089°60'0 0.0
2015-Jun-30 05:29N 29°56' W 089°60'5 0.1
2015-Jun-28 17:20N 29°54' W 089°54'910.9
2015-Jun-28 16:33N 29°57' W 090°04'2 1.9
2015-Jun-28 15:31N 29°55' W 090°04'0 0.0
2015-Jun-28 14:33N 29°55' W 090°04'0 0.1
2015-Jun-28 13:32N 29°55' W 090°04'0 0.0
2015-Jun-28 12:26N 29°55' W 090°04'0 0.0
2015-Jun-28 11:23N 29°55' W 090°04'0 0.0
2015-Jun-28 10:33N 29°55' W 090°04'  

Dump ship's entire track history